KBKT/BKT METAR and TAF weather

Enter ICAO airport designator
Station Type Date Time Source
KBKT METAR 2022/05/23 14:56 UTC NOAA

KBKT 231456Z AUTO 04006KT 10SM FEW038 OVC046 22/15 A3020 RMK AO2 SLP227 T02150153 52011 $


Station Type Date Time Source
KBKT Decoded METAR 2022/05/23 14:56 UTC NOAA

Ft. Pickett / Blackstone, VA, United States (KBKT) 37-05N 077-57W
May 23, 2022 - 10:56 AM EDT / 2022.05.23 1456 UTC
Wind: from the NE (040 degrees) at 7 MPH (6 KT):0
Visibility: 10 mile(s):0
Sky conditions: overcast
Temperature: 70.7 F (21.5 C)
Dew Point: 59.5 F (15.3 C)
Relative Humidity: 67%
Pressure (altimeter): 30.2 in. Hg (1022 hPa)
Pressure tendency: 0.03 inches (1.1 hPa) higher than three hours ago
ob: KBKT 231456Z AUTO 04006KT 10SM FEW038 OVC046 22/15 A3020 RMK AO2 SLP227 T02150153 52011
cycle: 15

Station Type Date Time Source
KBKT TAF UTC NOAA

Error!

Example: see airport list